sensor_id;sensor_type;location;lat;lon;timestamp;P1;durP1;ratioP1;P2;durP2;ratioP2
19816;SDS011;68323;49.394;8.434;2023-04-03T00:00:55;4.73;;;2.53;;
19816;SDS011;68323;49.394;8.434;2023-04-03T00:03:21;5.80;;;2.70;;
19816;SDS011;68323;49.394;8.434;2023-04-03T00:05:47;5.43;;;2.47;;
19816;SDS011;68323;49.394;8.434;2023-04-03T00:08:13;4.20;;;2.30;;
19816;SDS011;68323;49.394;8.434;2023-04-03T00:10:38;3.87;;;2.50;;
19816;SDS011;68323;49.394;8.434;2023-04-03T00:13:04;3.97;;;2.40;;
19816;SDS011;68323;49.394;8.434;2023-04-03T00:15:32;4.40;;;2.53;;
19816;SDS011;68323;49.394;8.434;2023-04-03T00:17:57;6.33;;;2.63;;
19816;SDS011;68323;49.394;8.434;2023-04-03T00:20:23;2.87;;;2.20;;
19816;SDS011;68323;49.394;8.434;2023-04-03T00:22:48;3.97;;;2.47;;
19816;SDS011;68323;49.394;8.434;2023-04-03T00:25:14;5.13;;;2.43;;
19816;SDS011;68323;49.394;8.434;2023-04-03T00:27:40;5.97;;;2.33;;
19816;SDS011;68323;49.394;8.434;2023-04-03T00:30:07;5.83;;;2.40;;
19816;SDS011;68323;49.394;8.434;2023-04-03T00:32:41;4.90;;;2.83;;
19816;SDS011;68323;49.394;8.434;2023-04-03T00:35:07;6.53;;;2.70;;
19816;SDS011;68323;49.394;8.434;2023-04-03T00:37:33;5.57;;;2.40;;
19816;SDS011;68323;49.394;8.434;2023-04-03T00:39:59;4.33;;;2.10;;
19816;SDS011;68323;49.394;8.434;2023-04-03T00:42:25;4.97;;;2.50;;
19816;SDS011;68323;49.394;8.434;2023-04-03T00:47:22;3.67;;;2.50;;
19816;SDS011;68323;49.394;8.434;2023-04-03T00:49:49;3.80;;;2.33;;
19816;SDS011;68323;49.394;8.434;2023-04-03T00:52:17;6.27;;;2.57;;
19816;SDS011;68323;49.394;8.434;2023-04-03T00:54:46;5.23;;;2.40;;
19816;SDS011;68323;49.394;8.434;2023-04-03T00:57:13;4.67;;;2.50;;
19816;SDS011;68323;49.394;8.434;2023-04-03T00:59:41;3.97;;;2.63;;
19816;SDS011;68323;49.394;8.434;2023-04-03T01:02:10;3.00;;;2.23;;
19816;SDS011;68323;49.394;8.434;2023-04-03T01:04:36;4.10;;;2.03;;
19816;SDS011;68323;49.394;8.434;2023-04-03T01:07:05;4.17;;;2.10;;
19816;SDS011;68323;49.394;8.434;2023-04-03T01:09:33;4.67;;;2.30;;
19816;SDS011;68323;49.394;8.434;2023-04-03T01:14:48;3.87;;;2.33;;
19816;SDS011;68323;49.394;8.434;2023-04-03T01:17:29;5.47;;;2.50;;
19816;SDS011;68323;49.394;8.434;2023-04-03T01:25:35;4.17;;;2.37;;
19816;SDS011;68323;49.394;8.434;2023-04-03T01:28:04;5.60;;;2.13;;
19816;SDS011;68323;49.394;8.434;2023-04-03T01:30:32;6.17;;;2.50;;
19816;SDS011;68323;49.394;8.434;2023-04-03T01:33:00;6.60;;;2.60;;
19816;SDS011;68323;49.394;8.434;2023-04-03T01:35:26;3.80;;;2.13;;
19816;SDS011;68323;49.394;8.434;2023-04-03T01:37:51;5.27;;;2.53;;
19816;SDS011;68323;49.394;8.434;2023-04-03T01:40:17;3.60;;;2.20;;
19816;SDS011;68323;49.394;8.434;2023-04-03T01:42:43;4.50;;;2.40;;
19816;SDS011;68323;49.394;8.434;2023-04-03T01:45:08;4.17;;;2.50;;
19816;SDS011;68323;49.394;8.434;2023-04-03T01:47:34;5.33;;;2.50;;
19816;SDS011;68323;49.394;8.434;2023-04-03T01:50:00;4.10;;;2.33;;
19816;SDS011;68323;49.394;8.434;2023-04-03T01:52:25;4.73;;;2.40;;
19816;SDS011;68323;49.394;8.434;2023-04-03T01:54:51;5.07;;;2.33;;
19816;SDS011;68323;49.394;8.434;2023-04-03T01:57:17;5.57;;;2.60;;
19816;SDS011;68323;49.394;8.434;2023-04-03T01:59:42;5.67;;;2.40;;
19816;SDS011;68323;49.394;8.434;2023-04-03T02:02:08;7.40;;;2.60;;
19816;SDS011;68323;49.394;8.434;2023-04-03T02:04:34;3.10;;;2.23;;
19816;SDS011;68323;49.394;8.434;2023-04-03T02:06:59;4.07;;;2.33;;
19816;SDS011;68323;49.394;8.434;2023-04-03T02:09:25;4.43;;;2.53;;
19816;SDS011;68323;49.394;8.434;2023-04-03T02:11:51;4.47;;;2.20;;
19816;SDS011;68323;49.394;8.434;2023-04-03T02:14:17;7.90;;;2.63;;
19816;SDS011;68323;49.394;8.434;2023-04-03T02:16:43;4.10;;;2.30;;
19816;SDS011;68323;49.394;8.434;2023-04-03T02:19:08;4.23;;;2.50;;
19816;SDS011;68323;49.394;8.434;2023-04-03T02:21:34;3.47;;;2.50;;
19816;SDS011;68323;49.394;8.434;2023-04-03T02:23:59;6.13;;;2.50;;
19816;SDS011;68323;49.394;8.434;2023-04-03T02:26:25;4.83;;;2.60;;
19816;SDS011;68323;49.394;8.434;2023-04-03T02:28:51;6.93;;;2.70;;
19816;SDS011;68323;49.394;8.434;2023-04-03T02:31:16;5.60;;;2.70;;
19816;SDS011;68323;49.394;8.434;2023-04-03T02:33:42;5.37;;;2.90;;
19816;SDS011;68323;49.394;8.434;2023-04-03T02:36:08;4.43;;;2.63;;
19816;SDS011;68323;49.394;8.434;2023-04-03T02:38:33;4.00;;;2.83;;
19816;SDS011;68323;49.394;8.434;2023-04-03T02:41:04;4.50;;;3.13;;
19816;SDS011;68323;49.394;8.434;2023-04-03T02:43:31;5.73;;;3.20;;
19816;SDS011;68323;49.394;8.434;2023-04-03T02:45:56;5.93;;;3.10;;
19816;SDS011;68323;49.394;8.434;2023-04-03T02:48:22;9.17;;;3.40;;
19816;SDS011;68323;49.394;8.434;2023-04-03T02:50:48;5.07;;;3.27;;
19816;SDS011;68323;49.394;8.434;2023-04-03T02:53:14;5.90;;;3.60;;
19816;SDS011;68323;49.394;8.434;2023-04-03T02:55:40;7.77;;;3.37;;
19816;SDS011;68323;49.394;8.434;2023-04-03T02:58:06;6.13;;;3.30;;
19816;SDS011;68323;49.394;8.434;2023-04-03T03:00:31;9.23;;;3.20;;
19816;SDS011;68323;49.394;8.434;2023-04-03T03:02:57;5.03;;;3.70;;
19816;SDS011;68323;49.394;8.434;2023-04-03T03:05:22;5.97;;;3.70;;
19816;SDS011;68323;49.394;8.434;2023-04-03T03:07:48;6.43;;;3.37;;
19816;SDS011;68323;49.394;8.434;2023-04-03T03:10:13;6.33;;;3.20;;
19816;SDS011;68323;49.394;8.434;2023-04-03T03:12:39;4.40;;;3.40;;
19816;SDS011;68323;49.394;8.434;2023-04-03T03:15:05;8.27;;;3.60;;
19816;SDS011;68323;49.394;8.434;2023-04-03T03:17:31;6.53;;;3.87;;
19816;SDS011;68323;49.394;8.434;2023-04-03T03:19:57;6.07;;;3.73;;
19816;SDS011;68323;49.394;8.434;2023-04-03T03:22:23;7.77;;;3.80;;
19816;SDS011;68323;49.394;8.434;2023-04-03T03:24:48;4.70;;;3.77;;
19816;SDS011;68323;49.394;8.434;2023-04-03T03:27:14;8.23;;;3.80;;
19816;SDS011;68323;49.394;8.434;2023-04-03T03:29:41;5.90;;;3.73;;
19816;SDS011;68323;49.394;8.434;2023-04-03T03:32:06;11.47;;;4.07;;
19816;SDS011;68323;49.394;8.434;2023-04-03T03:34:32;6.80;;;3.90;;
19816;SDS011;68323;49.394;8.434;2023-04-03T03:36:57;5.53;;;3.43;;
19816;SDS011;68323;49.394;8.434;2023-04-03T03:39:23;7.83;;;3.50;;
19816;SDS011;68323;49.394;8.434;2023-04-03T03:41:48;6.23;;;3.80;;
19816;SDS011;68323;49.394;8.434;2023-04-03T03:44:14;6.93;;;3.87;;
19816;SDS011;68323;49.394;8.434;2023-04-03T03:46:40;5.63;;;3.77;;
19816;SDS011;68323;49.394;8.434;2023-04-03T03:49:05;6.93;;;3.80;;
19816;SDS011;68323;49.394;8.434;2023-04-03T03:51:31;7.00;;;3.47;;
19816;SDS011;68323;49.394;8.434;2023-04-03T03:53:56;9.07;;;3.80;;
19816;SDS011;68323;49.394;8.434;2023-04-03T03:56:22;5.40;;;3.93;;
19816;SDS011;68323;49.394;8.434;2023-04-03T03:58:48;9.87;;;4.23;;
19816;SDS011;68323;49.394;8.434;2023-04-03T04:01:14;5.93;;;3.80;;
19816;SDS011;68323;49.394;8.434;2023-04-03T04:03:40;7.10;;;3.90;;
19816;SDS011;68323;49.394;8.434;2023-04-03T04:06:05;6.90;;;4.00;;
19816;SDS011;68323;49.394;8.434;2023-04-03T04:08:31;7.13;;;3.97;;
19816;SDS011;68323;49.394;8.434;2023-04-03T04:10:57;6.67;;;3.53;;
19816;SDS011;68323;49.394;8.434;2023-04-03T04:13:22;6.50;;;3.63;;
19816;SDS011;68323;49.394;8.434;2023-04-03T04:15:49;9.10;;;4.00;;
19816;SDS011;68323;49.394;8.434;2023-04-03T04:18:14;7.23;;;4.13;;
19816;SDS011;68323;49.394;8.434;2023-04-03T04:20:40;7.90;;;4.20;;
19816;SDS011;68323;49.394;8.434;2023-04-03T04:23:06;14.97;;;5.30;;
19816;SDS011;68323;49.394;8.434;2023-04-03T04:25:31;7.03;;;4.23;;
19816;SDS011;68323;49.394;8.434;2023-04-03T04:27:57;9.43;;;4.30;;
19816;SDS011;68323;49.394;8.434;2023-04-03T04:30:23;8.47;;;4.60;;
19816;SDS011;68323;49.394;8.434;2023-04-03T04:32:48;9.27;;;4.40;;
19816;SDS011;68323;49.394;8.434;2023-04-03T04:35:14;9.67;;;4.70;;
19816;SDS011;68323;49.394;8.434;2023-04-03T04:37:40;8.00;;;4.40;;
19816;SDS011;68323;49.394;8.434;2023-04-03T04:40:06;10.53;;;4.30;;
19816;SDS011;68323;49.394;8.434;2023-04-03T04:42:32;6.60;;;3.97;;
19816;SDS011;68323;49.394;8.434;2023-04-03T04:44:57;6.90;;;3.70;;
19816;SDS011;68323;49.394;8.434;2023-04-03T04:47:23;6.13;;;3.67;;
19816;SDS011;68323;49.394;8.434;2023-04-03T04:49:48;5.40;;;3.60;;
19816;SDS011;68323;49.394;8.434;2023-04-03T04:52:14;7.33;;;4.10;;
19816;SDS011;68323;49.394;8.434;2023-04-03T04:54:40;7.67;;;4.03;;
19816;SDS011;68323;49.394;8.434;2023-04-03T04:57:05;10.00;;;4.10;;
19816;SDS011;68323;49.394;8.434;2023-04-03T04:59:31;9.53;;;4.17;;
19816;SDS011;68323;49.394;8.434;2023-04-03T05:01:56;7.50;;;3.97;;
19816;SDS011;68323;49.394;8.434;2023-04-03T05:04:22;6.57;;;3.80;;
19816;SDS011;68323;49.394;8.434;2023-04-03T05:06:47;6.17;;;4.03;;
19816;SDS011;68323;49.394;8.434;2023-04-03T05:09:13;10.00;;;4.53;;
19816;SDS011;68323;49.394;8.434;2023-04-03T05:11:39;9.73;;;4.17;;
19816;SDS011;68323;49.394;8.434;2023-04-03T05:14:05;9.87;;;4.53;;
19816;SDS011;68323;49.394;8.434;2023-04-03T05:16:31;9.97;;;4.40;;
19816;SDS011;68323;49.394;8.434;2023-04-03T05:18:57;9.40;;;4.20;;
19816;SDS011;68323;49.394;8.434;2023-04-03T05:21:23;9.00;;;4.40;;
19816;SDS011;68323;49.394;8.434;2023-04-03T05:23:50;10.53;;;4.83;;
19816;SDS011;68323;49.394;8.434;2023-04-03T05:26:16;8.83;;;4.67;;
19816;SDS011;68323;49.394;8.434;2023-04-03T05:28:42;7.50;;;4.90;;
19816;SDS011;68323;49.394;8.434;2023-04-03T05:31:07;6.97;;;3.73;;
19816;SDS011;68323;49.394;8.434;2023-04-03T05:33:33;5.30;;;4.03;;
19816;SDS011;68323;49.394;8.434;2023-04-03T05:36:01;5.87;;;3.77;;
19816;SDS011;68323;49.394;8.434;2023-04-03T05:38:29;11.97;;;4.73;;
19816;SDS011;68323;49.394;8.434;2023-04-03T05:40:55;14.23;;;4.73;;
19816;SDS011;68323;49.394;8.434;2023-04-03T05:43:20;9.40;;;3.63;;
19816;SDS011;68323;49.394;8.434;2023-04-03T05:45:47;8.83;;;4.00;;
19816;SDS011;68323;49.394;8.434;2023-04-03T05:48:12;10.87;;;3.57;;
19816;SDS011;68323;49.394;8.434;2023-04-03T05:50:38;6.70;;;3.20;;
19816;SDS011;68323;49.394;8.434;2023-04-03T05:53:06;9.70;;;3.00;;
19816;SDS011;68323;49.394;8.434;2023-04-03T05:55:37;7.33;;;2.93;;
19816;SDS011;68323;49.394;8.434;2023-04-03T05:58:02;5.57;;;2.53;;
19816;SDS011;68323;49.394;8.434;2023-04-03T06:00:28;5.83;;;2.73;;
19816;SDS011;68323;49.394;8.434;2023-04-03T06:02:53;16.90;;;3.67;;
19816;SDS011;68323;49.394;8.434;2023-04-03T06:05:19;4.77;;;2.97;;
19816;SDS011;68323;49.394;8.434;2023-04-03T06:07:44;4.07;;;2.60;;
19816;SDS011;68323;49.394;8.434;2023-04-03T06:10:11;4.23;;;2.53;;
19816;SDS011;68323;49.394;8.434;2023-04-03T06:12:37;5.70;;;2.60;;
19816;SDS011;68323;49.394;8.434;2023-04-03T06:15:03;5.40;;;2.67;;
19816;SDS011;68323;49.394;8.434;2023-04-03T06:17:29;5.23;;;2.83;;
19816;SDS011;68323;49.394;8.434;2023-04-03T06:19:55;4.93;;;2.40;;
19816;SDS011;68323;49.394;8.434;2023-04-03T06:22:22;5.97;;;2.70;;
19816;SDS011;68323;49.394;8.434;2023-04-03T06:24:50;6.17;;;2.70;;
19816;SDS011;68323;49.394;8.434;2023-04-03T06:27:16;7.73;;;3.03;;
19816;SDS011;68323;49.394;8.434;2023-04-03T06:29:41;4.60;;;2.87;;
19816;SDS011;68323;49.394;8.434;2023-04-03T06:32:08;5.23;;;2.50;;
19816;SDS011;68323;49.394;8.434;2023-04-03T06:34:33;5.87;;;2.17;;
19816;SDS011;68323;49.394;8.434;2023-04-03T06:36:59;7.30;;;3.10;;
19816;SDS011;68323;49.394;8.434;2023-04-03T06:39:24;3.60;;;2.40;;
19816;SDS011;68323;49.394;8.434;2023-04-03T06:41:50;9.23;;;4.47;;
19816;SDS011;68323;49.394;8.434;2023-04-03T06:44:16;4.23;;;2.60;;
19816;SDS011;68323;49.394;8.434;2023-04-03T06:46:42;7.03;;;2.90;;
19816;SDS011;68323;49.394;8.434;2023-04-03T06:49:09;5.03;;;2.50;;
19816;SDS011;68323;49.394;8.434;2023-04-03T06:51:35;4.03;;;2.70;;
19816;SDS011;68323;49.394;8.434;2023-04-03T06:54:02;4.57;;;2.53;;
19816;SDS011;68323;49.394;8.434;2023-04-03T06:56:28;4.87;;;2.60;;
19816;SDS011;68323;49.394;8.434;2023-04-03T06:58:54;4.90;;;2.37;;
19816;SDS011;68323;49.394;8.434;2023-04-03T07:01:22;5.57;;;2.60;;
19816;SDS011;68323;49.394;8.434;2023-04-03T07:03:49;5.83;;;2.80;;
19816;SDS011;68323;49.394;8.434;2023-04-03T07:06:16;6.00;;;2.50;;
19816;SDS011;68323;49.394;8.434;2023-04-03T07:08:42;4.13;;;2.53;;
19816;SDS011;68323;49.394;8.434;2023-04-03T07:11:09;5.23;;;2.63;;
19816;SDS011;68323;49.394;8.434;2023-04-03T07:13:35;8.13;;;2.63;;
19816;SDS011;68323;49.394;8.434;2023-04-03T07:16:01;7.73;;;2.40;;
19816;SDS011;68323;49.394;8.434;2023-04-03T07:18:28;5.93;;;2.60;;
19816;SDS011;68323;49.394;8.434;2023-04-03T07:20:54;6.93;;;2.57;;
19816;SDS011;68323;49.394;8.434;2023-04-03T07:23:21;5.27;;;2.80;;
19816;SDS011;68323;49.394;8.434;2023-04-03T07:25:47;4.60;;;2.40;;
19816;SDS011;68323;49.394;8.434;2023-04-03T07:28:13;5.03;;;2.70;;
19816;SDS011;68323;49.394;8.434;2023-04-03T07:30:46;6.70;;;2.80;;
19816;SDS011;68323;49.394;8.434;2023-04-03T07:33:13;5.30;;;2.60;;
19816;SDS011;68323;49.394;8.434;2023-04-03T07:35:40;6.80;;;2.57;;
19816;SDS011;68323;49.394;8.434;2023-04-03T07:38:07;6.80;;;2.97;;
19816;SDS011;68323;49.394;8.434;2023-04-03T07:40:33;4.93;;;2.57;;
19816;SDS011;68323;49.394;8.434;2023-04-03T07:42:59;6.13;;;2.10;;
19816;SDS011;68323;49.394;8.434;2023-04-03T07:45:25;7.30;;;2.17;;
19816;SDS011;68323;49.394;8.434;2023-04-03T07:47:51;5.83;;;2.60;;
19816;SDS011;68323;49.394;8.434;2023-04-03T07:50:17;3.03;;;2.13;;
19816;SDS011;68323;49.394;8.434;2023-04-03T07:52:43;5.43;;;2.60;;
19816;SDS011;68323;49.394;8.434;2023-04-03T07:55:09;5.63;;;2.47;;
19816;SDS011;68323;49.394;8.434;2023-04-03T07:57:35;7.97;;;2.40;;
19816;SDS011;68323;49.394;8.434;2023-04-03T08:00:01;6.20;;;2.50;;
19816;SDS011;68323;49.394;8.434;2023-04-03T08:02:28;6.13;;;2.27;;
19816;SDS011;68323;49.394;8.434;2023-04-03T08:04:53;5.90;;;2.03;;
19816;SDS011;68323;49.394;8.434;2023-04-03T08:07:19;4.07;;;2.03;;
19816;SDS011;68323;49.394;8.434;2023-04-03T08:09:44;3.33;;;1.80;;
19816;SDS011;68323;49.394;8.434;2023-04-03T08:12:10;4.80;;;2.10;;
19816;SDS011;68323;49.394;8.434;2023-04-03T08:14:36;7.07;;;2.20;;
19816;SDS011;68323;49.394;8.434;2023-04-03T08:17:02;7.23;;;2.00;;
19816;SDS011;68323;49.394;8.434;2023-04-03T08:19:29;3.83;;;1.67;;
19816;SDS011;68323;49.394;8.434;2023-04-03T08:21:56;3.53;;;1.80;;
19816;SDS011;68323;49.394;8.434;2023-04-03T08:24:23;3.80;;;2.00;;
19816;SDS011;68323;49.394;8.434;2023-04-03T08:26:49;4.87;;;1.83;;
19816;SDS011;68323;49.394;8.434;2023-04-03T08:29:15;3.97;;;1.80;;
19816;SDS011;68323;49.394;8.434;2023-04-03T08:31:40;3.60;;;1.70;;
19816;SDS011;68323;49.394;8.434;2023-04-03T08:34:06;4.40;;;1.93;;
19816;SDS011;68323;49.394;8.434;2023-04-03T08:36:31;2.90;;;1.47;;
19816;SDS011;68323;49.394;8.434;2023-04-03T08:38:57;3.93;;;1.57;;
19816;SDS011;68323;49.394;8.434;2023-04-03T08:41:31;5.27;;;1.70;;
19816;SDS011;68323;49.394;8.434;2023-04-03T08:49:42;3.63;;;1.20;;
19816;SDS011;68323;49.394;8.434;2023-04-03T08:52:13;6.50;;;1.90;;
19816;SDS011;68323;49.394;8.434;2023-04-03T08:57:35;4.90;;;1.57;;
19816;SDS011;68323;49.394;8.434;2023-04-03T09:00:23;5.47;;;1.70;;
19816;SDS011;68323;49.394;8.434;2023-04-03T09:02:54;3.60;;;1.60;;
19816;SDS011;68323;49.394;8.434;2023-04-03T09:08:24;6.83;;;1.33;;
19816;SDS011;68323;49.394;8.434;2023-04-03T09:11:06;4.90;;;1.47;;
19816;SDS011;68323;49.394;8.434;2023-04-03T09:21:48;3.67;;;1.27;;
19816;SDS011;68323;49.394;8.434;2023-04-03T09:24:14;3.83;;;1.50;;
19816;SDS011;68323;49.394;8.434;2023-04-03T09:26:43;3.17;;;1.23;;
19816;SDS011;68323;49.394;8.434;2023-04-03T09:29:20;5.77;;;1.50;;
19816;SDS011;68323;49.394;8.434;2023-04-03T09:31:49;1.97;;;1.27;;
19816;SDS011;68323;49.394;8.434;2023-04-03T09:34:23;5.90;;;1.87;;
19816;SDS011;68323;49.394;8.434;2023-04-03T09:36:54;4.17;;;1.43;;
19816;SDS011;68323;49.394;8.434;2023-04-03T09:39:23;3.53;;;1.60;;
19816;SDS011;68323;49.394;8.434;2023-04-03T09:44:33;2.27;;;1.30;;
19816;SDS011;68323;49.394;8.434;2023-04-03T09:47:16;5.60;;;1.50;;
19816;SDS011;68323;49.394;8.434;2023-04-03T09:49:47;5.50;;;1.50;;
19816;SDS011;68323;49.394;8.434;2023-04-03T09:52:20;3.63;;;1.47;;
19816;SDS011;68323;49.394;8.434;2023-04-03T09:54:49;3.67;;;1.53;;
19816;SDS011;68323;49.394;8.434;2023-04-03T09:57:15;4.63;;;1.30;;
19816;SDS011;68323;49.394;8.434;2023-04-03T09:59:46;3.60;;;1.50;;
19816;SDS011;68323;49.394;8.434;2023-04-03T10:05:05;4.23;;;1.43;;
19816;SDS011;68323;49.394;8.434;2023-04-03T10:07:51;3.53;;;1.60;;
19816;SDS011;68323;49.394;8.434;2023-04-03T10:10:20;3.47;;;1.40;;
19816;SDS011;68323;49.394;8.434;2023-04-03T10:13:03;2.77;;;1.30;;
19816;SDS011;68323;49.394;8.434;2023-04-03T10:15:36;2.97;;;1.27;;
19816;SDS011;68323;49.394;8.434;2023-04-03T10:21:10;3.67;;;1.47;;
19816;SDS011;68323;49.394;8.434;2023-04-03T10:23:50;3.93;;;1.20;;
19816;SDS011;68323;49.394;8.434;2023-04-03T10:26:32;3.47;;;1.30;;
19816;SDS011;68323;49.394;8.434;2023-04-03T10:29:13;2.97;;;1.20;;
19816;SDS011;68323;49.394;8.434;2023-04-03T10:39:55;3.00;;;1.23;;
19816;SDS011;68323;49.394;8.434;2023-04-03T10:43:06;2.23;;;1.00;;
19816;SDS011;68323;49.394;8.434;2023-04-03T10:46:22;4.47;;;1.30;;
19816;SDS011;68323;49.394;8.434;2023-04-03T10:56:23;3.47;;;1.40;;
19816;SDS011;68323;49.394;8.434;2023-04-03T10:59:21;2.23;;;1.00;;
19816;SDS011;68323;49.394;8.434;2023-04-03T11:01:49;3.00;;;1.13;;
19816;SDS011;68323;49.394;8.434;2023-04-03T11:04:19;4.07;;;1.30;;
19816;SDS011;68323;49.394;8.434;2023-04-03T11:06:54;5.57;;;1.40;;
19816;SDS011;68323;49.394;8.434;2023-04-03T11:09:35;3.20;;;1.10;;
19816;SDS011;68323;49.394;8.434;2023-04-03T11:12:52;4.13;;;1.27;;
19816;SDS011;68323;49.394;8.434;2023-04-03T11:14:57;3.27;;;1.40;;
19816;SDS011;68323;49.394;8.434;2023-04-03T11:17:33;3.90;;;1.30;;
19816;SDS011;68323;49.394;8.434;2023-04-03T11:20:05;2.63;;;1.20;;
19816;SDS011;68323;49.394;8.434;2023-04-03T11:22:41;2.60;;;1.30;;
19816;SDS011;68323;49.394;8.434;2023-04-03T11:27:38;3.87;;;1.30;;
19816;SDS011;68323;49.394;8.434;2023-04-03T11:30:19;3.03;;;1.50;;
19816;SDS011;68323;49.394;8.434;2023-04-03T11:36:23;4.03;;;1.37;;
19816;SDS011;68323;49.394;8.434;2023-04-03T11:38:52;3.90;;;1.40;;
19816;SDS011;68323;49.394;8.434;2023-04-03T11:41:26;3.00;;;1.43;;
19816;SDS011;68323;49.394;8.434;2023-04-03T11:43:57;2.43;;;1.10;;
19816;SDS011;68323;49.394;8.434;2023-04-03T12:06:42;5.27;;;2.70;;
19816;SDS011;68323;49.394;8.434;2023-04-03T12:08:46;3.17;;;1.40;;
19816;SDS011;68323;49.394;8.434;2023-04-03T12:11:21;2.10;;;1.20;;
19816;SDS011;68323;49.394;8.434;2023-04-03T12:21:22;3.17;;;1.47;;
19816;SDS011;68323;49.394;8.434;2023-04-03T12:24:00;4.50;;;1.50;;
19816;SDS011;68323;49.394;8.434;2023-04-03T12:29:15;5.77;;;3.30;;
19816;SDS011;68323;49.394;8.434;2023-04-03T12:31:48;3.33;;;1.40;;
19816;SDS011;68323;49.394;8.434;2023-04-03T12:34:50;8.50;;;3.60;;
19816;SDS011;68323;49.394;8.434;2023-04-03T12:45:29;5.00;;;2.13;;
19816;SDS011;68323;49.394;8.434;2023-04-03T12:48:14;4.17;;;1.50;;
19816;SDS011;68323;49.394;8.434;2023-04-03T12:50:42;6.73;;;2.03;;
19816;SDS011;68323;49.394;8.434;2023-04-03T12:53:18;4.47;;;1.80;;
19816;SDS011;68323;49.394;8.434;2023-04-03T12:55:46;4.27;;;1.70;;
19816;SDS011;68323;49.394;8.434;2023-04-03T12:58:15;4.40;;;1.77;;
19816;SDS011;68323;49.394;8.434;2023-04-03T13:00:45;4.90;;;1.87;;
19816;SDS011;68323;49.394;8.434;2023-04-03T13:03:21;6.47;;;2.57;;
19816;SDS011;68323;49.394;8.434;2023-04-03T13:05:50;4.80;;;1.87;;
19816;SDS011;68323;49.394;8.434;2023-04-03T13:08:16;4.00;;;1.80;;
19816;SDS011;68323;49.394;8.434;2023-04-03T13:10:49;4.73;;;1.80;;
19816;SDS011;68323;49.394;8.434;2023-04-03T13:13:33;7.00;;;2.50;;
19816;SDS011;68323;49.394;8.434;2023-04-03T13:15:59;7.60;;;2.53;;
19816;SDS011;68323;49.394;8.434;2023-04-03T13:18:33;3.30;;;1.60;;
19816;SDS011;68323;49.394;8.434;2023-04-03T13:21:21;5.67;;;1.67;;
19816;SDS011;68323;49.394;8.434;2023-04-03T13:23:48;3.40;;;1.40;;
19816;SDS011;68323;49.394;8.434;2023-04-03T13:26:17;2.90;;;1.47;;
19816;SDS011;68323;49.394;8.434;2023-04-03T13:28:45;4.57;;;1.80;;
19816;SDS011;68323;49.394;8.434;2023-04-03T13:33:39;3.83;;;1.63;;
19816;SDS011;68323;49.394;8.434;2023-04-03T13:36:20;3.37;;;1.67;;
19816;SDS011;68323;49.394;8.434;2023-04-03T13:41:33;4.70;;;1.40;;
19816;SDS011;68323;49.394;8.434;2023-04-03T13:49:44;3.63;;;1.70;;
19816;SDS011;68323;49.394;8.434;2023-04-03T13:52:38;5.10;;;1.70;;
19816;SDS011;68323;49.394;8.434;2023-04-03T13:55:15;4.30;;;1.50;;
19816;SDS011;68323;49.394;8.434;2023-04-03T13:57:54;7.77;;;2.90;;
19816;SDS011;68323;49.394;8.434;2023-04-03T14:03:07;6.93;;;1.93;;
19816;SDS011;68323;49.394;8.434;2023-04-03T14:05:57;27.97;;;4.30;;
19816;SDS011;68323;49.394;8.434;2023-04-03T14:08:23;13.67;;;3.17;;
19816;SDS011;68323;49.394;8.434;2023-04-03T14:10:49;3.10;;;1.50;;
19816;SDS011;68323;49.394;8.434;2023-04-03T14:13:17;2.53;;;1.33;;
19816;SDS011;68323;49.394;8.434;2023-04-03T14:15:46;3.43;;;1.43;;
19816;SDS011;68323;49.394;8.434;2023-04-03T14:18:13;8.70;;;2.27;;
19816;SDS011;68323;49.394;8.434;2023-04-03T14:20:40;7.47;;;3.10;;
19816;SDS011;68323;49.394;8.434;2023-04-03T14:23:06;16.43;;;3.07;;
19816;SDS011;68323;49.394;8.434;2023-04-03T14:25:32;10.80;;;2.20;;
19816;SDS011;68323;49.394;8.434;2023-04-03T14:27:58;4.37;;;1.80;;
19816;SDS011;68323;49.394;8.434;2023-04-03T14:30:34;3.23;;;1.70;;
19816;SDS011;68323;49.394;8.434;2023-04-03T14:33:01;4.20;;;1.90;;
19816;SDS011;68323;49.394;8.434;2023-04-03T14:35:27;3.43;;;1.60;;
19816;SDS011;68323;49.394;8.434;2023-04-03T14:37:53;3.83;;;1.60;;
19816;SDS011;68323;49.394;8.434;2023-04-03T14:40:22;3.53;;;1.43;;
19816;SDS011;68323;49.394;8.434;2023-04-03T14:42:49;4.90;;;1.60;;
19816;SDS011;68323;49.394;8.434;2023-04-03T14:45:16;3.90;;;2.50;;
19816;SDS011;68323;49.394;8.434;2023-04-03T14:47:50;2.57;;;1.57;;
19816;SDS011;68323;49.394;8.434;2023-04-03T14:50:22;3.93;;;2.00;;
19816;SDS011;68323;49.394;8.434;2023-04-03T14:52:50;3.27;;;1.90;;
19816;SDS011;68323;49.394;8.434;2023-04-03T14:55:20;4.53;;;2.00;;
19816;SDS011;68323;49.394;8.434;2023-04-03T14:57:46;4.00;;;1.70;;
19816;SDS011;68323;49.394;8.434;2023-04-03T15:00:13;3.87;;;1.70;;
19816;SDS011;68323;49.394;8.434;2023-04-03T15:02:41;2.57;;;1.40;;
19816;SDS011;68323;49.394;8.434;2023-04-03T15:05:08;3.73;;;1.60;;
19816;SDS011;68323;49.394;8.434;2023-04-03T15:07:36;3.67;;;1.60;;
19816;SDS011;68323;49.394;8.434;2023-04-03T15:12:42;3.17;;;1.63;;
19816;SDS011;68323;49.394;8.434;2023-04-03T15:15:08;4.30;;;1.90;;
19816;SDS011;68323;49.394;8.434;2023-04-03T15:17:34;4.10;;;2.20;;
19816;SDS011;68323;49.394;8.434;2023-04-03T15:20:01;4.97;;;1.60;;
19816;SDS011;68323;49.394;8.434;2023-04-03T15:22:27;4.07;;;1.70;;
19816;SDS011;68323;49.394;8.434;2023-04-03T15:24:53;4.47;;;1.70;;
19816;SDS011;68323;49.394;8.434;2023-04-03T15:27:18;4.63;;;1.60;;
19816;SDS011;68323;49.394;8.434;2023-04-03T15:29:44;2.70;;;1.40;;
19816;SDS011;68323;49.394;8.434;2023-04-03T15:32:10;4.10;;;1.70;;
19816;SDS011;68323;49.394;8.434;2023-04-03T15:34:37;3.43;;;1.53;;
19816;SDS011;68323;49.394;8.434;2023-04-03T15:37:02;3.47;;;1.60;;
19816;SDS011;68323;49.394;8.434;2023-04-03T15:39:28;6.03;;;1.60;;
19816;SDS011;68323;49.394;8.434;2023-04-03T15:41:54;4.43;;;1.70;;
19816;SDS011;68323;49.394;8.434;2023-04-03T15:44:20;4.17;;;1.77;;
19816;SDS011;68323;49.394;8.434;2023-04-03T15:46:46;4.17;;;1.50;;
19816;SDS011;68323;49.394;8.434;2023-04-03T15:49:13;3.47;;;1.50;;
19816;SDS011;68323;49.394;8.434;2023-04-03T15:51:39;3.90;;;2.00;;
19816;SDS011;68323;49.394;8.434;2023-04-03T15:54:05;3.00;;;1.33;;
19816;SDS011;68323;49.394;8.434;2023-04-03T15:56:30;2.40;;;1.60;;
19816;SDS011;68323;49.394;8.434;2023-04-03T15:58:56;7.77;;;1.70;;
19816;SDS011;68323;49.394;8.434;2023-04-03T16:01:21;3.23;;;1.57;;
19816;SDS011;68323;49.394;8.434;2023-04-03T16:03:47;3.17;;;1.60;;
19816;SDS011;68323;49.394;8.434;2023-04-03T16:06:13;3.07;;;1.60;;
19816;SDS011;68323;49.394;8.434;2023-04-03T16:08:41;2.67;;;1.30;;
19816;SDS011;68323;49.394;8.434;2023-04-03T16:11:07;3.37;;;1.40;;
19816;SDS011;68323;49.394;8.434;2023-04-03T16:13:33;3.70;;;1.43;;
19816;SDS011;68323;49.394;8.434;2023-04-03T16:15:59;3.03;;;1.10;;
19816;SDS011;68323;49.394;8.434;2023-04-03T16:18:26;3.30;;;1.30;;
19816;SDS011;68323;49.394;8.434;2023-04-03T16:20:52;2.13;;;1.20;;
19816;SDS011;68323;49.394;8.434;2023-04-03T16:23:18;3.33;;;1.40;;
19816;SDS011;68323;49.394;8.434;2023-04-03T16:25:44;2.57;;;1.40;;
19816;SDS011;68323;49.394;8.434;2023-04-03T16:28:11;2.50;;;1.30;;
19816;SDS011;68323;49.394;8.434;2023-04-03T16:30:37;2.90;;;1.53;;
19816;SDS011;68323;49.394;8.434;2023-04-03T16:33:08;2.00;;;1.20;;
19816;SDS011;68323;49.394;8.434;2023-04-03T16:35:35;2.97;;;1.40;;
19816;SDS011;68323;49.394;8.434;2023-04-03T16:38:00;3.27;;;1.47;;
19816;SDS011;68323;49.394;8.434;2023-04-03T16:40:26;4.90;;;1.50;;
19816;SDS011;68323;49.394;8.434;2023-04-03T16:42:52;2.13;;;1.30;;
19816;SDS011;68323;49.394;8.434;2023-04-03T16:45:17;2.10;;;1.20;;
19816;SDS011;68323;49.394;8.434;2023-04-03T16:47:43;5.77;;;1.40;;
19816;SDS011;68323;49.394;8.434;2023-04-03T16:50:08;2.33;;;1.30;;